createdAt,value
2023-01-12T00:04:37.634Z,100448.13
2023-01-12T00:09:39.177Z,100452.91
2023-01-12T00:14:40.717Z,100439.28
2023-01-12T00:19:42.276Z,100403.09
2023-01-12T00:24:46.074Z,100401.97
2023-01-12T00:29:48.623Z,100446.47
2023-01-12T00:34:50.394Z,100411.69
2023-01-12T00:40:01.853Z,100418.16
2023-01-12T00:45:04.162Z,100411.91
2023-01-12T00:50:06.026Z,100401.97
2023-01-12T00:55:07.930Z,100404.00
2023-01-12T01:00:12.883Z,100403.91
2023-01-12T01:05:14.582Z,100393.56
2023-01-12T01:10:16.767Z,100399.72
2023-01-12T01:15:18.319Z,100404.00
2023-01-12T01:20:19.929Z,100406.19
2023-01-12T01:25:21.497Z,100391.44
2023-01-12T01:30:22.962Z,100388.69
2023-01-12T01:35:24.645Z,100401.13
2023-01-12T01:40:26.217Z,100374.88
2023-01-12T01:45:27.722Z,100374.28
2023-01-12T01:50:37.622Z,100385.22
2023-01-12T01:55:44.754Z,100370.22
2023-01-12T02:00:46.261Z,100359.47
2023-01-12T02:05:50.054Z,100358.16
2023-01-12T02:10:52.674Z,100371.06
2023-01-12T02:16:15.108Z,100351.53
2023-01-12T02:21:51.682Z,100354.91
2023-01-12T02:27:23.942Z,100358.97
2023-01-12T02:32:43.923Z,100343.97
2023-01-12T02:37:54.831Z,100349.09
2023-01-12T02:43:09.020Z,100342.16
2023-01-12T02:48:20.442Z,100328.53
2023-01-12T02:53:29.995Z,100357.25
2023-01-12T02:58:36.788Z,100348.19
2023-01-12T03:03:38.797Z,100352.34
2023-01-12T03:08:40.366Z,100340.72
2023-01-12T03:13:51.855Z,100348.50
2023-01-12T03:18:58.813Z,100338.03
2023-01-12T03:24:17.050Z,100349.19
2023-01-12T03:29:33.553Z,100315.16
2023-01-12T03:34:36.687Z,100321.13
2023-01-12T03:39:56.139Z,100309.53
2023-01-12T03:45:22.369Z,100312.50
2023-01-12T03:50:30.522Z,100322.34
2023-01-12T03:55:34.806Z,100306.97
2023-01-12T04:00:36.979Z,100295.72
2023-01-12T04:05:39.757Z,100286.50
2023-01-12T04:10:41.420Z,100286.13
2023-01-12T04:15:43.009Z,100269.47
2023-01-12T04:20:46.734Z,100277.75
2023-01-12T04:25:48.388Z,100271.06
2023-01-12T04:30:49.831Z,100273.44
2023-01-12T04:35:51.243Z,100274.41
2023-01-12T04:40:55.680Z,100262.06
2023-01-12T04:45:57.276Z,100255.56
2023-01-12T04:51:00.809Z,100246.31
2023-01-12T04:56:06.930Z,100241.19
2023-01-12T05:01:13.664Z,100231.72
2023-01-12T05:06:15.226Z,100219.06
2023-01-12T05:11:17.359Z,100202.94
2023-01-12T05:16:18.991Z,100186.78
2023-01-12T05:21:21.757Z,100180.53
2023-01-12T05:26:23.308Z,100167.88
2023-01-12T05:31:24.819Z,100175.03
2023-01-12T05:36:26.676Z,100166.47
2023-01-12T05:41:28.167Z,100156.16
2023-01-12T05:46:31.589Z,100158.50
2023-01-12T05:51:33.019Z,100155.13
2023-01-12T05:56:34.543Z,100135.72
2023-01-12T06:01:36.290Z,100133.56
2023-01-12T06:06:37.723Z,100132.81
2023-01-12T06:11:39.193Z,100125.44
2023-01-12T06:16:42.420Z,100123.28
2023-01-12T06:21:44.090Z,100128.88
2023-01-12T06:26:45.529Z,100130.03
2023-01-12T06:31:47.021Z,100123.91
2023-01-12T06:36:48.469Z,100119.91
2023-01-12T06:41:49.890Z,100115.75
2023-01-12T06:46:51.526Z,100120.44
2023-01-12T06:51:52.984Z,100111.91
2023-01-12T06:56:54.456Z,100110.78
2023-01-12T07:01:56.047Z,100098.59
2023-01-12T07:06:57.566Z,100086.84
2023-01-12T07:11:59.340Z,100067.03
2023-01-12T07:17:00.781Z,100066.47
2023-01-12T07:22:02.190Z,100054.50
2023-01-12T07:27:04.135Z,100058.75
2023-01-12T07:32:05.823Z,100059.34
2023-01-12T07:37:07.357Z,100046.59
2023-01-12T07:42:08.954Z,100045.34
2023-01-12T07:47:10.440Z,100040.94
2023-01-12T07:52:12.687Z,100043.38
2023-01-12T07:57:14.174Z,100063.63
2023-01-12T08:02:15.911Z,100052.25
2023-01-12T08:07:17.490Z,100056.38
2023-01-12T08:12:18.992Z,100036.00
2023-01-12T08:17:22.533Z,100045.00
2023-01-12T08:22:30.447Z,100070.44
2023-01-12T08:27:33.938Z,100061.81
2023-01-12T08:32:36.959Z,100072.88
2023-01-12T08:37:38.652Z,100053.91
2023-01-12T08:42:40.208Z,100065.47
2023-01-12T08:47:41.793Z,100054.13
2023-01-12T08:52:43.334Z,100067.69
2023-01-12T08:57:44.994Z,100068.78
2023-01-12T09:02:46.533Z,100059.75
2023-01-12T09:07:48.059Z,100056.41
2023-01-12T09:12:49.535Z,100054.19
2023-01-12T09:17:54.747Z,100045.88
2023-01-12T09:22:56.312Z,100054.81
2023-01-12T09:27:58.424Z,100047.88
2023-01-12T09:32:59.913Z,100077.31
2023-01-12T09:38:01.308Z,100073.50
2023-01-12T09:43:03.273Z,100081.97
2023-01-12T09:48:08.290Z,100075.81
2023-01-12T09:53:33.788Z,100104.22
2023-01-12T09:59:04.269Z,100076.56
2023-01-12T10:04:06.980Z,100093.25
2023-01-12T10:09:34.737Z,100101.66
2023-01-12T10:14:49.689Z,100071.59
2023-01-12T10:20:01.717Z,100081.53
2023-01-12T10:25:35.047Z,100056.63
2023-01-12T10:30:39.261Z,100075.94
2023-01-12T10:35:54.303Z,100074.31
2023-01-12T10:41:17.035Z,100054.25
2023-01-12T10:46:20.297Z,100053.88
2023-01-12T10:51:30.292Z,100054.69
2023-01-12T10:56:42.756Z,100060.53
2023-01-12T11:01:52.016Z,100054.28
2023-01-12T11:07:05.263Z,100060.81
2023-01-12T11:12:29.607Z,100059.28
2023-01-12T11:18:02.298Z,100072.75
2023-01-12T11:23:08.889Z,100063.75
2023-01-12T11:28:23.283Z,100064.84
2023-01-12T11:33:30.157Z,100046.06
2023-01-12T11:39:03.522Z,100057.78
2023-01-12T11:44:22.453Z,100047.47
2023-01-12T11:49:47.614Z,100042.88
2023-01-12T11:54:49.165Z,100034.94
2023-01-12T12:00:02.468Z,100028.97
2023-01-12T12:05:25.127Z,100031.59
2023-01-12T12:10:43.672Z,100013.63
2023-01-12T12:16:08.144Z,100007.09
2023-01-12T12:26:38.785Z,100017.00
2023-01-12T12:31:51.447Z,100015.31
2023-01-12T12:37:06.695Z,100016.28
2023-01-12T12:42:32.780Z,100010.00
2023-01-12T12:47:34.277Z,100017.69
2023-01-12T12:52:35.862Z,99988.34
2023-01-12T12:58:04.118Z,99994.56
2023-01-12T13:03:06.429Z,99990.28
2023-01-12T13:08:24.189Z,100006.94
2023-01-12T13:13:35.027Z,99985.81
2023-01-12T13:19:06.800Z,99983.06
2023-01-12T13:24:11.059Z,99962.59
2023-01-12T13:29:27.885Z,99963.56
2023-01-12T13:34:38.682Z,99950.34
2023-01-12T13:39:51.544Z,99950.06
2023-01-12T13:44:53.736Z,99966.84
2023-01-12T13:49:58.776Z,99966.03
2023-01-12T13:55:00.389Z,99962.41
2023-01-12T14:00:08.368Z,99974.94
2023-01-12T14:05:26.926Z,99967.41
2023-01-12T14:10:37.977Z,99985.22
2023-01-12T14:15:41.115Z,99979.25
2023-01-12T14:20:54.301Z,99968.00
2023-01-12T14:26:10.819Z,99966.47
2023-01-12T14:31:31.521Z,99954.34
2023-01-12T14:36:42.788Z,99953.66
2023-01-12T14:41:47.894Z,99954.91
2023-01-12T14:46:52.509Z,99948.06
2023-01-12T14:51:59.404Z,99970.75
2023-01-12T14:57:07.935Z,99968.00
2023-01-12T15:02:15.119Z,99964.34
2023-01-12T15:07:19.861Z,99962.97
2023-01-12T15:12:30.314Z,99961.72
2023-01-12T15:17:31.949Z,99955.63
2023-01-12T15:22:33.530Z,99955.22
2023-01-12T15:27:35.053Z,99955.50
2023-01-12T15:32:47.441Z,99949.66
2023-01-12T15:37:51.483Z,99941.75
2023-01-12T15:42:53.628Z,99958.03
2023-01-12T15:47:55.352Z,99959.41
2023-01-12T15:52:59.042Z,99955.22
2023-01-12T15:58:00.539Z,99947.72
2023-01-12T16:03:02.431Z,99955.09
2023-01-12T16:08:04.290Z,99954.69
2023-01-12T16:13:07.634Z,99955.66
2023-01-12T16:18:09.932Z,99957.22
2023-01-12T16:23:11.665Z,99953.13
2023-01-12T16:28:13.159Z,99944.53
2023-01-12T16:33:14.635Z,99949.44
2023-01-12T16:38:18.423Z,99947.19
2023-01-12T16:43:22.165Z,99953.72
2023-01-12T16:48:23.725Z,99959.41
2023-01-12T16:53:26.602Z,99945.75
2023-01-12T16:58:28.446Z,99925.09
2023-01-12T17:03:30.143Z,99940.09
2023-01-12T17:08:32.465Z,99939.13
2023-01-12T17:13:34.191Z,99916.06
2023-01-12T17:18:37.132Z,99914.50
2023-01-12T17:23:41.133Z,99912.97
2023-01-12T17:28:42.668Z,99918.56
2023-01-12T17:33:44.676Z,99921.88
2023-01-12T17:38:46.167Z,99918.13
2023-01-12T17:43:47.674Z,99923.25
2023-01-12T17:48:50.232Z,99932.91
2023-01-12T17:53:58.408Z,99944.69
2023-01-12T17:59:00.655Z,99942.34
2023-01-12T18:04:03.102Z,99939.69
2023-01-12T18:09:05.225Z,99941.34
2023-01-12T18:14:07.417Z,99935.38
2023-01-12T18:19:11.696Z,99934.97
2023-01-12T18:24:13.103Z,99931.22
2023-01-12T18:29:14.712Z,99928.72
2023-01-12T18:34:16.400Z,99927.44
2023-01-12T18:39:19.140Z,99926.94
2023-01-12T18:44:22.478Z,99927.47
2023-01-12T18:49:26.277Z,99914.81
2023-01-12T18:54:27.786Z,99897.47
2023-01-12T18:59:29.322Z,99900.81
2023-01-12T19:04:30.865Z,99903.56
2023-01-12T19:09:32.343Z,99888.53
2023-01-12T19:14:34.031Z,99874.41
2023-01-12T19:19:36.145Z,99880.09
2023-01-12T19:24:37.955Z,99862.38
2023-01-12T19:29:41.188Z,99853.75
2023-01-12T19:34:43.832Z,99863.75
2023-01-12T19:39:46.572Z,99854.00
2023-01-12T19:44:48.350Z,99853.47
2023-01-12T19:49:50.884Z,99861.78
2023-01-12T19:54:52.324Z,99849.28
2023-01-12T19:59:53.956Z,99871.94
2023-01-12T20:04:55.510Z,99853.41
2023-01-12T20:09:57.082Z,99870.09
2023-01-12T20:14:58.611Z,99870.25
2023-01-12T20:20:00.102Z,99867.34
2023-01-12T20:25:02.427Z,99853.47
2023-01-12T20:30:06.524Z,99856.78
2023-01-12T20:35:09.564Z,99841.84
2023-01-12T20:40:12.836Z,99840.47
2023-01-12T20:45:14.696Z,99831.84
2023-01-12T20:50:16.768Z,99830.75
2023-01-12T20:55:19.162Z,99836.28
2023-01-12T21:00:20.741Z,99830.41
2023-01-12T21:05:22.343Z,99822.09
2023-01-12T21:10:24.175Z,99811.84
2023-01-12T21:15:25.836Z,99818.34
2023-01-12T21:20:27.344Z,99809.16
2023-01-12T21:25:28.859Z,99804.84
2023-01-12T21:30:30.339Z,99806.38
2023-01-12T21:35:32.688Z,99795.25
2023-01-12T21:40:36.771Z,99803.19
2023-01-12T21:45:41.292Z,99814.38
2023-01-12T21:50:43.428Z,99808.44
2023-01-12T21:55:59.874Z,99798.47
2023-01-12T22:01:16.754Z,99793.00
2023-01-12T22:06:18.261Z,99789.22
2023-01-12T22:11:20.907Z,99791.84
2023-01-12T22:16:22.688Z,99788.78
2023-01-12T22:21:24.225Z,99792.56
2023-01-12T22:26:25.635Z,99780.53
2023-01-12T22:31:27.149Z,99789.59
2023-01-12T22:36:28.756Z,99786.00
2023-01-12T22:41:30.279Z,99787.31
2023-01-12T22:46:31.789Z,99783.41
2023-01-12T22:51:33.609Z,99787.28
2023-01-12T22:56:38.824Z,99776.72
2023-01-12T23:01:40.477Z,99768.25
2023-01-12T23:06:42.061Z,99769.28
2023-01-12T23:11:43.664Z,99761.63
2023-01-12T23:16:45.062Z,99765.09
2023-01-12T23:21:46.507Z,99768.06
2023-01-12T23:26:48.078Z,99768.75
2023-01-12T23:31:50.618Z,99766.78
2023-01-12T23:36:52.016Z,99752.84
2023-01-12T23:41:53.460Z,99762.63
2023-01-12T23:46:54.913Z,99746.72
2023-01-12T23:51:56.342Z,99738.34
2023-01-12T23:56:57.801Z,99728.50
